Time;durP1;ratioP1;P1;durP2;ratioP2;P2;SDS_P1;SDS_P2;PMS_P1;PMS_P2;Temp;Humidity;BMP_temperature;BMP_pressure;BME280_temperature;BME280_humidity;BME280_pressure;Samples;Min_cycle;Max_cycle;Signal;HPM_P1;HPM_P2
2023/09/08 00:01:33;;;;;;;5.07;4.57;;;;;;;22.48;64.50;102037.94;6087180;28;21122;-67
2023/09/08 00:04:56;;;;;;;6.82;5.05;;;;;;;22.20;65.16;102044.00;6088698;28;20235;-67
2023/09/08 00:08:17;;;;;;;6.30;4.72;;;;;;;22.23;64.78;102040.03;6088965;28;20244;-67
2023/09/08 00:11:38;;;;;;;6.03;4.60;;;;;;;22.15;64.63;102038.19;6091208;28;20241;-67
2023/09/08 00:14:59;;;;;;;5.10;4.38;;;;;;;22.13;64.79;102036.69;6077185;28;20240;-67
2023/09/08 00:18:19;;;;;;;5.55;5.05;;;;;;;22.14;64.91;102044.72;6090236;29;20239;-68
2023/09/08 00:21:43;;;;;;;7.18;4.75;;;;;;;22.16;64.78;102036.28;6087801;28;20789;-66
2023/09/08 00:25:04;;;;;;;5.13;4.35;;;;;;;22.08;64.31;102034.47;6092124;28;21107;-68
2023/09/08 00:28:25;;;;;;;5.35;4.68;;;;;;;22.04;65.12;102035.88;6085680;28;20244;-67
2023/09/08 00:31:46;;;;;;;4.78;4.30;;;;;;;22.08;64.84;102033.59;6105414;28;20472;-67
2023/09/08 00:35:07;;;;;;;4.13;3.72;;;;;;;22.11;64.51;102028.59;6091030;29;20263;-67
2023/09/08 00:38:29;;;;;;;6.95;5.05;;;;;;;22.11;64.18;102022.28;6091139;28;20239;-67
2023/09/08 00:41:50;;;;;;;5.50;5.00;;;;;;;22.13;64.24;102014.69;6094311;28;20236;-67
2023/09/08 00:45:11;;;;;;;4.93;4.53;;;;;;;22.24;63.90;102017.84;6093202;28;20236;-68
2023/09/08 00:48:34;;;;;;;6.80;4.82;;;;;;;22.25;63.19;102010.47;6088268;28;20248;-68
2023/09/08 00:51:55;;;;;;;7.70;4.57;;;;;;;22.20;63.08;102013.78;6092108;28;20232;-67
2023/09/08 00:55:18;;;;;;;4.43;4.03;;;;;;;22.28;63.15;102001.84;6093992;28;20267;-67
2023/09/08 00:58:39;;;;;;;5.47;4.88;;;;;;;22.24;63.07;102006.88;6093120;28;20240;-67
2023/09/08 01:02:00;;;;;;;4.85;4.43;;;;;;;22.25;63.09;102002.22;6091644;28;20236;-67
2023/09/08 01:05:22;;;;;;;5.28;4.03;;;;;;;22.19;62.98;101997.47;6103088;28;20307;-68
2023/09/08 01:08:44;;;;;;;5.35;4.55;;;;;;;22.16;62.68;102003.31;6083629;28;20251;-66
2023/09/08 01:12:08;;;;;;;6.63;4.82;;;;;;;22.23;62.68;102004.31;6096568;28;20243;-68
2023/09/08 01:15:29;;;;;;;5.32;4.00;;;;;;;22.21;62.70;101992.66;6095234;28;20240;-67
2023/09/08 01:18:50;;;;;;;4.55;4.15;;;;;;;22.06;63.09;102003.59;6094249;28;20235;-67
2023/09/08 01:22:41;;;;;;;4.65;3.97;;;;;;;22.12;62.94;102001.97;6088747;28;20259;-68
2023/09/08 01:26:09;;;;;;;5.25;4.75;;;;;;;22.10;62.90;101999.44;6089526;28;20239;-67
2023/09/08 01:29:31;;;;;;;6.00;3.97;;;;;;;21.96;63.13;102002.97;6088590;28;20232;-67
2023/09/08 01:32:54;;;;;;;4.53;4.18;;;;;;;21.76;63.85;102001.69;6069995;28;20248;-67
2023/09/08 01:36:16;;;;;;;5.15;4.65;;;;;;;21.76;64.26;101998.94;6076313;28;20235;-67
2023/09/08 01:39:36;;;;;;;6.22;4.75;;;;;;;21.62;64.63;101996.97;6083858;29;20282;-68
2023/09/08 01:42:58;;;;;;;5.03;3.80;;;;;;;21.55;64.70;101990.50;6089273;28;20252;-68
2023/09/08 01:46:19;;;;;;;4.95;3.88;;;;;;;21.62;64.70;101990.63;6080354;28;20259;-67
2023/09/08 01:49:40;;;;;;;5.45;4.97;;;;;;;21.44;65.22;101991.75;6091930;28;20239;-66
2023/09/08 01:53:01;;;;;;;4.50;4.13;;;;;;;21.43;65.44;101986.44;6103421;28;20235;-67
2023/09/08 01:56:23;;;;;;;4.57;4.18;;;;;;;21.40;65.71;101990.41;6086106;29;20387;-67
2023/09/08 01:59:45;;;;;;;6.68;5.10;;;;;;;21.25;65.79;101985.88;6093122;29;20282;-67
2023/09/08 02:03:06;;;;;;;6.43;4.50;;;;;;;21.20;66.29;101977.31;6073201;28;20240;-67
2023/09/08 02:06:28;;;;;;;4.65;4.05;;;;;;;21.18;66.62;101982.97;6074623;28;20232;-67
2023/09/08 02:09:49;;;;;;;4.68;4.07;;;;;;;21.10;66.71;101983.00;6087709;29;20235;-66
2023/09/08 02:13:10;;;;;;;15.05;4.90;;;;;;;21.14;66.85;101976.13;6090966;28;20240;-68
2023/09/08 02:16:32;;;;;;;5.78;5.18;;;;;;;21.07;66.99;101972.38;6086731;28;20251;-68
2023/09/08 02:19:53;;;;;;;6.10;4.38;;;;;;;21.16;66.75;101975.94;6087505;28;20319;-67
2023/09/08 02:23:14;;;;;;;4.38;4.00;;;;;;;21.05;66.73;101977.19;6086807;28;20255;-66
2023/09/08 02:26:35;;;;;;;5.72;5.03;;;;;;;21.09;66.56;101977.72;6090987;28;20232;-67
2023/09/08 02:29:56;;;;;;;4.95;4.47;;;;;;;21.03;67.11;101986.63;6090647;28;20323;-68
2023/09/08 02:33:19;;;;;;;4.35;3.95;;;;;;;21.04;67.01;101977.38;6085301;28;20233;-67
2023/09/08 02:36:40;;;;;;;4.70;4.25;;;;;;;21.12;66.83;101978.22;6089779;28;20228;-66
2023/09/08 02:40:03;;;;;;;4.38;3.97;;;;;;;21.15;66.65;101980.56;6086517;28;20242;-67
2023/09/08 02:43:24;;;;;;;5.28;4.70;;;;;;;21.06;66.84;101978.06;6086158;28;20232;-67
2023/09/08 02:46:45;;;;;;;5.47;3.92;;;;;;;21.04;67.29;101982.88;6084195;28;20327;-67
2023/09/08 02:50:08;;;;;;;4.70;4.30;;;;;;;20.89;67.34;101977.22;6101001;28;20311;-67
2023/09/08 02:53:29;;;;;;;5.10;4.40;;;;;;;20.92;67.80;101978.78;6086317;28;20244;-67
2023/09/08 02:56:50;;;;;;;5.78;4.43;;;;;;;20.77;68.15;101980.53;6085234;28;20558;-67
2023/09/08 03:00:14;;;;;;;5.60;4.90;;;;;;;20.62;68.40;101983.13;6089255;28;20633;-67
2023/09/08 03:03:35;;;;;;;4.85;4.30;;;;;;;20.73;68.54;101976.44;6092914;28;20833;-68
2023/09/08 03:06:57;;;;;;;5.53;4.75;;;;;;;20.46;69.04;101978.50;6101014;28;20236;-67
2023/09/08 03:10:18;;;;;;;7.30;4.35;;;;;;;20.54;69.14;101977.66;6094903;28;20235;-68
2023/09/08 03:13:39;;;;;;;4.53;4.03;;;;;;;20.52;69.04;101971.50;6097433;28;20291;-68
2023/09/08 03:17:00;;;;;;;6.25;4.50;;;;;;;20.49;69.32;101974.56;6090948;29;20243;-68
2023/09/08 03:20:21;;;;;;;4.82;4.43;;;;;;;20.43;69.36;101973.41;6105026;28;20240;-66
2023/09/08 03:23:44;;;;;;;5.88;5.38;;;;;;;20.36;69.37;101966.88;6092017;28;20239;-66
2023/09/08 03:27:05;;;;;;;5.68;5.18;;;;;;;20.31;69.70;101960.22;6091855;29;20235;-67
2023/09/08 03:30:26;;;;;;;7.45;5.90;;;;;;;20.31;69.99;101965.72;6092350;28;20594;-66
2023/09/08 03:33:47;;;;;;;8.68;6.97;;;;;;;20.25;70.11;101959.06;6100030;28;21498;-67
2023/09/08 03:37:08;;;;;;;6.20;5.63;;;;;;;20.31;69.59;101957.50;6106365;28;20248;-66
2023/09/08 03:40:30;;;;;;;6.07;5.50;;;;;;;20.11;70.59;101958.84;6103922;28;20240;-66
2023/09/08 03:43:52;;;;;;;6.55;5.80;;;;;;;20.20;70.36;101960.56;6091958;28;20261;-67
2023/09/08 03:47:12;;;;;;;5.43;4.93;;;;;;;20.05;70.80;101957.63;6089798;28;20232;-66
2023/09/08 03:50:33;;;;;;;5.82;5.20;;;;;;;20.00;70.62;101951.84;6086861;28;20606;-67
2023/09/08 03:53:55;;;;;;;7.95;6.93;;;;;;;20.07;71.17;101954.75;6106292;28;20617;-67
2023/09/08 03:57:17;;;;;;;6.28;5.68;;;;;;;20.17;70.70;101949.94;6090682;28;20319;-67
2023/09/08 04:00:39;;;;;;;6.70;6.10;;;;;;;20.10;70.75;101946.16;6090755;28;20700;-67
2023/09/08 04:04:00;;;;;;;6.63;6.13;;;;;;;20.14;70.82;101953.00;6091142;28;20244;-67
2023/09/08 04:07:21;;;;;;;7.15;5.72;;;;;;;20.09;70.12;101945.31;6089855;28;20749;-67
2023/09/08 04:10:42;;;;;;;7.50;5.70;;;;;;;20.02;70.95;101944.31;6082845;29;20258;-67
2023/09/08 04:14:05;;;;;;;7.05;6.35;;;;;;;20.09;70.60;101945.31;6097845;28;21123;-66
2023/09/08 04:17:26;;;;;;;8.73;6.15;;;;;;;20.12;70.53;101953.19;6095743;28;20244;-66
2023/09/08 04:20:46;;;;;;;9.25;8.30;;;;;;;20.13;70.50;101951.31;6096767;28;20235;-66
2023/09/08 04:24:10;;;;;;;7.15;6.15;;;;;;;20.00;71.14;101950.97;6100660;29;20240;-66
2023/09/08 04:27:32;;;;;;;7.72;7.00;;;;;;;19.96;71.24;101945.00;6093688;28;20319;-67
2023/09/08 04:30:54;;;;;;;6.30;5.70;;;;;;;19.89;71.50;101941.22;6093506;28;20622;-67
2023/09/08 04:34:15;;;;;;;6.13;5.50;;;;;;;20.02;71.14;101932.50;6094075;29;20257;-67
2023/09/08 04:37:36;;;;;;;5.30;4.75;;;;;;;19.96;71.27;101936.78;6094435;28;21585;-67
2023/09/08 04:40:58;;;;;;;5.10;4.28;;;;;;;19.94;71.17;101934.19;6087619;28;20239;-66
2023/09/08 04:44:19;;;;;;;6.15;5.65;;;;;;;20.05;70.69;101940.38;6086403;28;20239;-67
2023/09/08 04:47:42;;;;;;;6.15;5.28;;;;;;;20.06;70.75;101931.13;6090311;28;20240;-67
2023/09/08 04:51:03;;;;;;;5.65;5.18;;;;;;;20.09;70.41;101931.63;6086294;28;20230;-67
2023/09/08 04:54:27;;;;;;;6.10;5.60;;;;;;;20.12;70.72;101923.06;6091433;28;20228;-68
2023/09/08 04:57:48;;;;;;;8.27;6.10;;;;;;;20.08;70.55;101918.97;6090281;28;20674;-67
2023/09/08 05:01:09;;;;;;;5.18;4.68;;;;;;;20.11;70.35;101928.72;6089674;28;20610;-67
2023/09/08 05:04:32;;;;;;;5.95;5.45;;;;;;;19.93;71.30;101927.03;6094822;29;20279;-68
2023/09/08 05:07:56;;;;;;;5.88;5.15;;;;;;;20.02;70.78;101924.28;6093916;28;20235;-67
2023/09/08 05:11:18;;;;;;;6.47;5.40;;;;;;;20.08;70.80;101923.59;6099828;28;20240;-68
2023/09/08 05:14:41;;;;;;;6.15;5.63;;;;;;;20.12;70.66;101920.34;6087560;28;20239;-68
2023/09/08 05:18:02;;;;;;;7.38;5.90;;;;;;;20.07;71.02;101924.63;6101455;28;20242;-68
2023/09/08 05:21:24;;;;;;;6.05;5.55;;;;;;;20.08;70.72;101924.44;6081381;28;20243;-68
2023/09/08 05:24:45;;;;;;;5.70;5.22;;;;;;;20.09;70.58;101923.41;6084229;28;20314;-69
2023/09/08 05:28:06;;;;;;;6.82;5.85;;;;;;;20.13;70.79;101915.72;6081318;29;20236;-68
2023/09/08 05:31:27;;;;;;;6.28;5.78;;;;;;;20.23;70.41;101914.53;6087539;28;20231;-68
2023/09/08 05:34:49;;;;;;;6.57;5.78;;;;;;;20.24;69.97;101918.97;6067066;28;20231;-69
2023/09/08 05:38:11;;;;;;;6.95;6.25;;;;;;;20.26;70.53;101922.41;6096836;28;20263;-68
2023/09/08 05:41:33;;;;;;;7.43;6.68;;;;;;;20.20;69.82;101923.09;6078840;28;20228;-68
2023/09/08 05:44:55;;;;;;;6.88;6.28;;;;;;;20.24;70.37;101915.38;6086713;28;20322;-69
2023/09/08 05:48:16;;;;;;;6.80;6.18;;;;;;;19.97;71.09;101911.09;6079040;28;20243;-69
2023/09/08 05:51:37;;;;;;;9.93;6.38;;;;;;;20.17;71.21;101914.34;6090098;28;20247;-68
2023/09/08 05:55:00;;;;;;;7.40;6.72;;;;;;;20.15;71.02;101908.19;6104416;28;20317;-68
2023/09/08 05:58:24;;;;;;;7.07;6.47;;;;;;;20.17;70.66;101909.69;6107432;28;20240;-67
2023/09/08 06:01:45;;;;;;;5.63;5.13;;;;;;;20.51;70.42;101909.50;6086912;28;20243;-68
2023/09/08 06:05:07;;;;;;;6.50;5.93;;;;;;;20.66;69.85;101908.59;6091078;28;20346;-68
2023/09/08 06:08:29;;;;;;;6.18;5.68;;;;;;;20.75;69.35;101905.84;6092720;28;20273;-67
2023/09/08 06:11:52;;;;;;;8.05;5.30;;;;;;;20.86;69.27;101910.94;6089563;28;20239;-67
2023/09/08 06:15:13;;;;;;;7.53;6.80;;;;;;;20.99;68.98;101913.94;6088216;28;20331;-67
2023/09/08 06:18:39;;;;;;;5.88;5.38;;;;;;;21.11;68.71;101905.16;6091031;28;20239;-68
2023/09/08 06:22:01;;;;;;;7.05;6.35;;;;;;;21.04;68.01;101919.78;6088790;28;20236;-68
2023/09/08 06:25:23;;;;;;;6.85;5.80;;;;;;;20.79;69.10;101912.66;6091423;28;20244;-67
2023/09/08 06:28:45;;;;;;;7.30;5.05;;;;;;;21.13;68.91;101916.81;6094124;28;20232;-67
2023/09/08 06:32:07;;;;;;;6.43;5.80;;;;;;;20.77;69.40;101923.81;6086398;29;20235;-67
2023/09/08 06:35:28;;;;;;;5.85;5.25;;;;;;;20.87;69.28;101918.13;6089034;28;20236;-67
2023/09/08 06:38:49;;;;;;;8.65;6.78;;;;;;;21.13;68.66;101924.22;6094263;28;20327;-69
2023/09/08 06:42:10;;;;;;;6.13;5.53;;;;;;;21.55;68.12;101926.53;6106239;28;20251;-68
2023/09/08 06:45:34;;;;;;;5.40;4.90;;;;;;;21.78;67.88;101921.91;6089623;28;20239;-68
2023/09/08 06:48:55;;;;;;;6.20;5.45;;;;;;;21.91;67.11;101928.50;6108912;28;20235;-69
2023/09/08 06:52:17;;;;;;;7.53;5.75;;;;;;;21.71;66.77;101927.28;6076866;28;20235;-69
2023/09/08 06:55:38;;;;;;;6.13;5.47;;;;;;;22.00;66.86;101927.41;6113105;28;20244;-68
2023/09/08 06:59:00;;;;;;;7.47;6.68;;;;;;;21.85;66.51;101929.25;6104525;28;20244;-69
2023/09/08 07:02:23;;;;;;;7.00;6.30;;;;;;;21.92;67.20;101926.63;6111150;28;20538;-68
2023/09/08 07:05:43;;;;;;;5.10;4.70;;;;;;;22.33;66.17;101922.47;6098536;28;20243;-69
2023/09/08 07:09:05;;;;;;;5.65;4.75;;;;;;;22.52;65.92;101921.06;6109436;28;20240;-67
2023/09/08 07:12:27;;;;;;;6.35;4.90;;;;;;;22.30;65.94;101922.00;6098721;28;20263;-67
2023/09/08 07:15:49;;;;;;;5.97;5.47;;;;;;;22.46;65.50;101913.56;6112583;28;20235;-67
2023/09/08 07:19:11;;;;;;;10.73;5.70;;;;;;;22.14;65.79;101929.34;6102631;28;20661;-67
2023/09/08 07:22:32;;;;;;;7.13;6.05;;;;;;;22.08;66.45;101923.72;6097281;28;20279;-68
2023/09/08 07:25:53;;;;;;;5.47;4.55;;;;;;;22.19;66.26;101924.16;6099581;28;20247;-68
2023/09/08 07:29:18;;;;;;;5.53;4.97;;;;;;;22.73;65.18;101912.94;6098862;28;20327;-68
2023/09/08 07:32:40;;;;;;;4.72;4.30;;;;;;;23.09;64.57;101907.50;6095923;28;20236;-68
2023/09/08 07:36:06;;;;;;;6.65;5.65;;;;;;;22.90;64.04;101909.81;6096669;28;20240;-68
2023/09/08 07:39:27;;;;;;;7.05;5.85;;;;;;;22.89;64.03;101908.09;6095901;28;20291;-68
2023/09/08 07:42:48;;;;;;;9.07;5.50;;;;;;;23.21;63.07;101911.47;6076618;28;20270;-67
2023/09/08 07:46:09;;;;;;;6.32;5.30;;;;;;;23.28;63.42;101909.66;6083116;29;20509;-66
2023/09/08 07:49:30;;;;;;;5.40;4.90;;;;;;;23.12;63.79;101912.59;6094789;28;20240;-66
2023/09/08 07:52:55;;;;;;;6.00;5.35;;;;;;;22.93;64.74;101912.16;6079788;28;20254;-68
2023/09/08 07:56:15;;;;;;;6.47;5.55;;;;;;;23.26;63.98;101909.81;6088802;29;20252;-68
2023/09/08 07:59:36;;;;;;;6.13;5.53;;;;;;;23.38;63.86;101902.81;6087427;28;20771;-68
2023/09/08 08:02:58;;;;;;;5.95;4.65;;;;;;;23.44;63.36;101895.69;6093611;29;20240;-67
2023/09/08 08:06:19;;;;;;;5.53;5.03;;;;;;;23.57;61.79;101901.34;6086167;28;20243;-68
2023/09/08 08:09:41;;;;;;;6.57;5.90;;;;;;;23.12;62.92;101896.97;6086704;28;20331;-69
2023/09/08 08:13:02;;;;;;;6.20;5.65;;;;;;;23.21;62.85;101898.56;6088143;28;20240;-65
2023/09/08 08:16:24;;;;;;;7.63;5.63;;;;;;;23.47;62.84;101900.78;6092527;28;20239;-66
2023/09/08 08:19:45;;;;;;;9.27;5.90;;;;;;;23.43;61.95;101907.72;6099058;28;20338;-65
2023/09/08 08:23:07;;;;;;;5.30;4.65;;;;;;;23.85;61.57;101913.25;6095266;28;20235;-66
2023/09/08 08:26:32;;;;;;;5.82;5.32;;;;;;;23.92;61.08;101911.41;6089748;28;20299;-66
2023/09/08 08:29:53;;;;;;;6.80;5.55;;;;;;;24.11;60.13;101912.69;6092105;29;20236;-65
2023/09/08 08:33:14;;;;;;;7.00;5.97;;;;;;;23.65;60.39;101923.22;6086726;28;20244;-65
2023/09/08 08:36:35;;;;;;;8.35;6.38;;;;;;;23.79;61.13;101917.66;6088552;28;22280;-65
2023/09/08 08:39:56;;;;;;;6.05;4.47;;;;;;;23.78;61.05;101913.19;6096196;28;20239;-66
2023/09/08 08:43:19;;;;;;;6.22;4.90;;;;;;;23.90;60.32;101905.25;6090221;28;20236;-67
2023/09/08 08:46:42;;;;;;;6.53;5.43;;;;;;;24.05;60.08;101908.81;6092626;28;20236;-67
2023/09/08 08:50:04;;;;;;;6.47;5.40;;;;;;;24.27;60.06;101904.97;6093926;28;20231;-67
2023/09/08 08:53:26;;;;;;;6.07;5.05;;;;;;;24.10;59.94;101897.19;6095697;28;20264;-68
2023/09/08 08:56:47;;;;;;;6.70;5.57;;;;;;;24.31;59.58;101902.66;6097921;28;20239;-68
2023/09/08 09:00:12;;;;;;;6.20;5.55;;;;;;;24.37;58.79;101899.09;6100601;28;20263;-67
2023/09/08 09:03:37;;;;;;;5.90;5.00;;;;;;;24.44;57.88;101900.84;6103887;28;20236;-67
2023/09/08 09:06:58;;;;;;;6.97;5.10;;;;;;;24.69;58.22;101901.22;6102829;28;20243;-68
2023/09/08 09:10:19;;;;;;;5.88;5.35;;;;;;;25.13;58.21;101896.16;6106449;28;20227;-67
2023/09/08 09:13:41;;;;;;;6.80;5.82;;;;;;;25.21;57.34;101895.97;6108711;28;20802;-67
2023/09/08 09:17:04;;;;;;;5.28;4.78;;;;;;;25.05;57.11;101904.63;6103591;28;20298;-67
2023/09/08 09:20:26;;;;;;;5.70;5.18;;;;;;;25.09;56.74;101897.63;6099871;28;21364;-67
2023/09/08 09:23:47;;;;;;;6.43;5.05;;;;;;;24.98;57.36;101894.59;6100735;28;20254;-67
2023/09/08 09:27:08;;;;;;;4.53;4.22;;;;;;;25.36;57.29;101895.81;6096675;28;20534;-68
2023/09/08 09:30:47;;;;;;;6.00;4.85;;;;;;;25.70;56.32;101897.63;6100853;28;20236;-67
2023/09/08 09:34:09;;;;;;;7.63;5.55;;;;;;;25.27;56.67;101895.16;6103437;28;20247;-67
2023/09/08 09:37:31;;;;;;;6.13;5.10;;;;;;;25.49;55.84;101886.75;6102175;28;20235;-67
2023/09/08 09:40:51;;;;;;;7.00;5.30;;;;;;;25.67;55.18;101890.59;6107419;28;20317;-67
2023/09/08 09:44:12;;;;;;;5.47;4.97;;;;;;;25.60;55.11;101888.88;6103376;28;20236;-67
2023/09/08 09:47:33;;;;;;;10.45;5.68;;;;;;;25.83;55.41;101887.41;6104655;28;20532;-67
2023/09/08 09:50:55;;;;;;;5.35;4.85;;;;;;;25.73;55.72;101881.47;6108386;28;20612;-67
2023/09/08 09:54:16;;;;;;;8.80;6.00;;;;;;;25.83;55.16;101872.75;6103214;28;20239;-67
2023/09/08 09:57:39;;;;;;;4.45;4.00;;;;;;;26.11;55.42;101874.28;6102529;28;20880;-65
2023/09/08 10:01:00;;;;;;;5.25;4.70;;;;;;;26.24;55.45;101867.03;6104643;28;20267;-68
2023/09/08 10:04:22;;;;;;;5.90;5.35;;;;;;;26.60;54.54;101859.06;6096000;28;20344;-68
2023/09/08 10:07:46;;;;;;;5.20;4.70;;;;;;;26.92;54.16;101863.69;6100861;28;22177;-66
2023/09/08 10:11:09;;;;;;;7.35;5.70;;;;;;;27.01;54.43;101858.75;6107769;28;20251;-66
2023/09/08 10:14:32;;;;;;;6.88;6.18;;;;;;;26.85;54.44;101866.47;6106458;28;20232;-67
2023/09/08 10:17:55;;;;;;;5.47;4.97;;;;;;;26.71;53.59;101859.28;6108000;28;20252;-67
2023/09/08 10:21:18;;;;;;;6.03;5.40;;;;;;;26.79;54.64;101863.72;6101844;29;20227;-67
2023/09/08 10:24:41;;;;;;;5.70;5.18;;;;;;;27.26;53.38;101855.00;6103488;28;20240;-68
2023/09/08 10:28:03;;;;;;;7.05;5.57;;;;;;;27.70;52.83;101854.94;6102429;28;20931;-68
2023/09/08 10:31:27;;;;;;;6.32;5.15;;;;;;;28.07;52.74;101850.41;6098714;28;20322;-67
2023/09/08 10:34:49;;;;;;;5.78;5.18;;;;;;;28.37;52.00;101831.94;6105869;28;20238;-67
2023/09/08 10:38:24;;;;;;;4.95;4.55;;;;;;;28.23;51.31;101848.97;6102740;28;20252;-66
2023/09/08 10:41:46;;;;;;;5.72;5.22;;;;;;;28.29;51.67;101848.91;6098820;28;20263;-66
2023/09/08 10:45:16;;;;;;;5.60;4.72;;;;;;;28.74;50.79;101851.44;6102465;28;20806;-67
2023/09/08 10:48:42;;;;;;;5.72;5.22;;;;;;;29.28;50.60;101847.75;6101710;28;20236;-69
2023/09/08 10:52:09;;;;;;;7.20;5.72;;;;;;;28.90;49.81;101840.53;6102531;28;20686;-68
2023/09/08 10:55:36;;;;;;;4.57;4.22;;;;;;;28.97;49.89;101835.78;6100020;28;20235;-67
2023/09/08 10:59:01;;;;;;;5.30;4.38;;;;;;;28.88;50.51;101831.59;6099347;28;20334;-67
2023/09/08 11:02:35;;;;;;;6.90;5.00;;;;;;;30.08;49.00;101836.03;6098124;28;20311;-65
2023/09/08 11:05:57;;;;;;;5.63;4.90;;;;;;;31.58;46.85;101832.06;6099980;28;20243;-67
2023/09/08 11:09:18;;;;;;;5.32;4.82;;;;;;;32.69;44.03;101825.47;6092778;28;22133;-67
2023/09/08 11:12:39;;;;;;;5.15;4.65;;;;;;;33.82;40.51;101822.56;6098318;28;20236;-66
2023/09/08 11:16:02;;;;;;;4.43;4.13;;;;;;;39.02;35.04;101824.03;6087149;28;20628;-67
2023/09/08 11:19:23;;;;;;;5.82;4.50;;;;;;;36.91;35.44;101823.91;6098540;28;20246;-68
2023/09/08 11:22:45;;;;;;;6.53;5.75;;;;;;;37.86;34.42;101822.50;6097996;28;20240;-67
2023/09/08 11:26:07;;;;;;;4.20;3.80;;;;;;;40.30;30.77;101819.75;6101119;28;20233;-68
2023/09/08 11:29:29;;;;;;;5.20;4.32;;;;;;;37.24;33.33;101820.34;6105576;28;20227;-67
2023/09/08 11:32:51;;;;;;;4.88;4.45;;;;;;;39.01;32.07;101822.38;6098820;28;20236;-66
2023/09/08 11:36:15;;;;;;;4.70;4.30;;;;;;;40.38;31.59;101807.72;6099497;28;20250;-67
2023/09/08 11:39:39;;;;;;;6.63;4.05;;;;;;;41.39;29.79;101814.91;6106219;28;20789;-65
2023/09/08 11:42:59;;;;;;;4.72;3.47;;;;;;;38.22;32.21;101814.53;6104754;28;20232;-66
2023/09/08 11:46:20;;;;;;;4.60;3.63;;;;;;;40.20;31.41;101809.47;6096957;28;20292;-66
2023/09/08 11:49:43;;;;;;;6.57;4.47;;;;;;;40.32;30.69;101808.97;6100559;28;20381;-66
2023/09/08 11:53:05;;;;;;;5.78;3.80;;;;;;;41.26;29.88;101812.97;6100877;28;20240;-66
2023/09/08 11:56:27;;;;;;;6.80;5.13;;;;;;;41.87;28.64;101815.16;6102920;28;20768;-66
2023/09/08 11:59:49;;;;;;;4.47;4.10;;;;;;;41.87;29.06;101812.31;6112104;28;20239;-66
2023/09/08 12:03:11;;;;;;;5.13;4.13;;;;;;;41.66;28.79;101814.00;6103340;28;20231;-66
2023/09/08 12:06:33;;;;;;;4.05;3.75;;;;;;;40.01;30.09;101808.72;6093966;28;26550;-66
2023/09/08 12:09:54;;;;;;;3.97;3.50;;;;;;;39.17;32.57;101803.25;6096977;28;21088;-66
2023/09/08 12:13:21;;;;;;;5.53;4.35;;;;;;;41.32;30.07;101798.34;6103386;28;20275;-67
2023/09/08 12:16:43;;;;;;;4.60;4.25;;;;;;;42.81;28.40;101802.28;6096794;28;20234;-66
2023/09/08 12:20:14;;;;;;;3.70;3.47;;;;;;;42.67;28.03;101801.56;6102244;28;20240;-65
2023/09/08 12:23:48;;;;;;;4.05;3.63;;;;;;;42.24;28.82;101800.53;6098081;29;20239;-64
2023/09/08 12:27:09;;;;;;;4.40;4.00;;;;;;;40.85;29.39;101793.19;6098019;28;20293;-66
2023/09/08 12:30:32;;;;;;;4.57;3.70;;;;;;;42.63;29.04;101780.69;6095372;28;20253;-67
2023/09/08 12:33:53;;;;;;;5.30;4.00;;;;;;;41.29;28.16;101779.16;6100981;28;20238;-65
2023/09/08 12:37:14;;;;;;;7.20;3.58;;;;;;;42.73;28.46;101780.38;6096451;28;20767;-67
2023/09/08 12:40:39;;;;;;;4.97;4.57;;;;;;;43.11;28.34;101774.13;6100317;28;20247;-66
2023/09/08 12:44:00;;;;;;;4.80;3.90;;;;;;;43.55;27.66;101768.97;6098422;28;20629;-66
2023/09/08 12:47:21;;;;;;;3.95;3.58;;;;;;;42.52;28.34;101762.28;6100879;28;20818;-66
2023/09/08 12:50:42;;;;;;;3.63;3.03;;;;;;;42.37;26.77;101759.91;6099595;28;20626;-67
2023/09/08 12:54:03;;;;;;;3.05;2.85;;;;;;;43.35;25.39;101760.31;6102430;28;20314;-67
2023/09/08 12:57:25;;;;;;;3.25;2.78;;;;;;;39.87;28.49;101751.25;6096517;28;20254;-66
2023/09/08 13:00:46;;;;;;;2.65;2.45;;;;;;;39.19;28.60;101747.34;6102851;28;20239;-67
2023/09/08 13:04:07;;;;;;;2.97;2.70;;;;;;;39.78;28.69;101737.00;6103061;28;20236;-67
2023/09/08 13:07:28;;;;;;;3.63;3.33;;;;;;;41.88;26.36;101741.13;6099175;28;20235;-67
2023/09/08 13:10:49;;;;;;;2.90;2.70;;;;;;;39.86;27.79;101738.31;6103393;28;20240;-66
2023/09/08 13:14:11;;;;;;;3.30;2.83;;;;;;;40.15;28.24;101744.56;6098018;28;20256;-66
2023/09/08 13:17:32;;;;;;;2.88;2.67;;;;;;;42.62;26.77;101746.97;6099033;28;20323;-66
2023/09/08 13:20:54;;;;;;;2.90;2.70;;;;;;;41.13;26.80;101740.19;6105129;28;20727;-65
2023/09/08 13:24:15;;;;;;;4.25;3.88;;;;;;;40.75;27.91;101738.78;6101257;28;20231;-65
2023/09/08 13:27:36;;;;;;;6.90;6.22;;;;;;;41.71;27.11;101738.16;6102757;28;20244;-67
2023/09/08 13:30:58;;;;;;;6.07;4.43;;;;;;;42.58;26.24;101729.75;6099348;28;20759;-66
2023/09/08 13:34:19;;;;;;;2.83;2.65;;;;;;;41.00;26.66;101738.22;6093558;28;20435;-65
2023/09/08 13:37:42;;;;;;;3.85;3.33;;;;;;;41.41;26.75;101725.59;6094194;28;20557;-66
2023/09/08 13:41:03;;;;;;;4.70;4.30;;;;;;;42.40;26.34;101727.16;6090822;28;20292;-66
2023/09/08 13:44:25;;;;;;;3.75;3.40;;;;;;;41.84;26.15;101714.59;6089556;28;20231;-66
2023/09/08 13:47:47;;;;;;;4.63;4.22;;;;;;;42.61;26.54;101725.44;6082245;28;21818;-65
2023/09/08 13:51:08;;;;;;;4.13;3.78;;;;;;;41.97;26.56;101710.81;6088723;28;20235;-66
2023/09/08 13:54:29;;;;;;;7.32;6.72;;;;;;;43.26;26.29;101703.50;6091614;28;21450;-66
2023/09/08 13:57:50;;;;;;;3.80;3.50;;;;;;;39.42;28.81;101715.34;6099864;28;20235;-66
2023/09/08 14:01:11;;;;;;;4.50;3.97;;;;;;;38.89;29.82;101714.75;6095631;28;20238;-66
2023/09/08 14:04:34;;;;;;;4.60;4.22;;;;;;;37.59;30.91;101709.50;6107175;28;20236;-66
2023/09/08 14:07:55;;;;;;;5.45;4.03;;;;;;;38.79;30.36;101687.53;6079076;28;20322;-66
2023/09/08 14:11:16;;;;;;;7.10;4.65;;;;;;;37.78;30.93;101696.34;6069707;28;20893;-66
2023/09/08 14:14:37;;;;;;;3.63;3.33;;;;;;;38.80;30.17;101689.22;6095268;28;20633;-66
2023/09/08 14:17:58;;;;;;;3.88;3.53;;;;;;;38.26;30.52;101686.81;6086370;28;20256;-66
2023/09/08 14:21:20;;;;;;;3.63;3.33;;;;;;;36.97;31.59;101682.13;6067591;28;20248;-66
2023/09/08 14:24:41;;;;;;;3.58;3.28;;;;;;;38.58;30.84;101676.81;6081392;28;20775;-66
2023/09/08 14:28:03;;;;;;;4.60;4.20;;;;;;;39.26;30.62;101674.41;6083615;28;20236;-67
2023/09/08 14:31:23;;;;;;;22.85;20.67;;;;;;;39.49;30.45;101665.78;6075075;28;20273;-66
2023/09/08 14:34:44;;;;;;;8.00;7.30;;;;;;;37.99;31.47;101668.84;6082281;28;20247;-66
2023/09/08 14:38:08;;;;;;;11.13;10.18;;;;;;;38.39;31.53;101674.81;6076625;28;20239;-67
2023/09/08 14:41:29;;;;;;;7.03;5.38;;;;;;;37.50;31.92;101674.66;6082414;28;20235;-67
2023/09/08 14:44:51;;;;;;;3.97;3.63;;;;;;;35.76;34.29;101668.56;6076083;28;20255;-67
2023/09/08 14:48:12;;;;;;;4.55;3.65;;;;;;;34.84;34.81;101665.19;6068291;28;20326;-66
2023/09/08 14:51:33;;;;;;;4.07;3.78;;;;;;;34.93;35.06;101655.94;6075564;28;25966;-66
2023/09/08 14:54:55;;;;;;;4.90;4.50;;;;;;;35.65;35.03;101660.44;6077796;28;20267;-67
2023/09/08 14:58:16;;;;;;;4.93;4.40;;;;;;;35.38;35.03;101664.38;6079815;28;20235;-66
2023/09/08 15:01:38;;;;;;;4.07;3.78;;;;;;;35.34;35.31;101657.63;6078521;28;20318;-66
2023/09/08 15:04:59;;;;;;;4.35;3.95;;;;;;;34.87;36.42;101657.03;6082568;28;20236;-66
2023/09/08 15:08:20;;;;;;;12.48;11.23;;;;;;;34.93;36.19;101650.31;6071370;28;20235;-66
2023/09/08 15:11:42;;;;;;;6.50;5.72;;;;;;;35.00;35.98;101650.94;6086164;28;20231;-66
2023/09/08 15:15:04;;;;;;;5.05;4.65;;;;;;;34.64;36.60;101646.34;6093455;28;20509;-66
2023/09/08 15:18:27;;;;;;;4.72;4.30;;;;;;;34.46;36.60;101650.47;6099455;28;21063;-66
2023/09/08 15:21:48;;;;;;;4.88;4.47;;;;;;;33.97;37.40;101654.72;6087042;28;20258;-66
2023/09/08 15:25:09;;;;;;;6.03;3.67;;;;;;;33.73;36.95;101639.50;6095952;28;20325;-65
2023/09/08 15:28:32;;;;;;;4.72;3.80;;;;;;;34.00;37.27;101643.03;6097226;28;20236;-66
2023/09/08 15:31:53;;;;;;;4.03;3.53;;;;;;;34.06;37.48;101643.88;6086335;28;20236;-66
2023/09/08 15:35:14;;;;;;;4.18;3.75;;;;;;;34.62;36.94;101642.97;6097996;29;20231;-66
2023/09/08 15:38:35;;;;;;;6.07;5.57;;;;;;;34.67;36.19;101639.34;6088983;28;20602;-66